sensor_id;sensor_type;location;lat;lon;timestamp;pressure;altitude;pressure_sealevel;temperature;humidity
61014;BME280;46899;47.542;19.082;2023-08-07T00:02:33;99591.53;;;15.42;94.39
61014;BME280;46899;47.542;19.082;2023-08-07T00:05:36;99603.34;;;15.49;93.63
61014;BME280;46899;47.542;19.082;2023-08-07T00:08:38;99590.41;;;15.46;93.26
61014;BME280;46899;47.542;19.082;2023-08-07T00:11:41;99586.94;;;15.45;94.73
61014;BME280;46899;47.542;19.082;2023-08-07T00:14:43;99606.56;;;15.52;94.44
61014;BME280;46899;47.542;19.082;2023-08-07T00:17:46;99598.63;;;15.54;93.44
61014;BME280;46899;47.542;19.082;2023-08-07T00:20:48;99599.53;;;15.53;94.05
61014;BME280;46899;47.542;19.082;2023-08-07T00:23:51;99597.25;;;15.61;94.18
61014;BME280;46899;47.542;19.082;2023-08-07T00:26:53;99600.81;;;15.60;94.48
61014;BME280;46899;47.542;19.082;2023-08-07T00:29:56;99604.81;;;15.65;93.85
61014;BME280;46899;47.542;19.082;2023-08-07T00:32:59;99596.09;;;15.65;94.75
61014;BME280;46899;47.542;19.082;2023-08-07T00:36:01;99593.81;;;15.73;93.83
61014;BME280;46899;47.542;19.082;2023-08-07T00:39:04;99605.75;;;15.64;95.14
61014;BME280;46899;47.542;19.082;2023-08-07T00:42:07;99609.22;;;15.65;94.29
61014;BME280;46899;47.542;19.082;2023-08-07T00:45:09;99602.09;;;15.67;94.77
61014;BME280;46899;47.542;19.082;2023-08-07T00:48:14;99609.53;;;15.60;95.29
61014;BME280;46899;47.542;19.082;2023-08-07T00:51:17;99611.72;;;15.54;95.53
61014;BME280;46899;47.542;19.082;2023-08-07T00:54:20;99603.81;;;15.41;97.37
61014;BME280;46899;47.542;19.082;2023-08-07T00:57:23;99598.03;;;15.36;97.19
61014;BME280;46899;47.542;19.082;2023-08-07T01:00:27;99602.41;;;15.36;96.91
61014;BME280;46899;47.542;19.082;2023-08-07T01:03:30;99597.19;;;15.36;97.29
61014;BME280;46899;47.542;19.082;2023-08-07T01:06:33;99599.91;;;15.34;97.73
61014;BME280;46899;47.542;19.082;2023-08-07T01:09:35;99602.84;;;15.30;98.07
61014;BME280;46899;47.542;19.082;2023-08-07T01:12:48;99606.63;;;15.26;97.43
61014;BME280;46899;47.542;19.082;2023-08-07T01:15:55;99597.16;;;15.23;97.04
61014;BME280;46899;47.542;19.082;2023-08-07T01:19:00;99604.37;;;15.20;97.23
61014;BME280;46899;47.542;19.082;2023-08-07T01:22:13;99600.28;;;15.16;98.77
61014;BME280;46899;47.542;19.082;2023-08-07T01:25:16;99602.38;;;15.11;99.53
61014;BME280;46899;47.542;19.082;2023-08-07T01:28:31;99609.91;;;15.15;97.48
61014;BME280;46899;47.542;19.082;2023-08-07T01:31:35;99606.16;;;15.19;96.30
61014;BME280;46899;47.542;19.082;2023-08-07T01:34:40;99611.19;;;15.22;95.25
61014;BME280;46899;47.542;19.082;2023-08-07T01:37:43;99617.09;;;15.26;95.59
61014;BME280;46899;47.542;19.082;2023-08-07T01:40:47;99609.00;;;15.29;95.86
61014;BME280;46899;47.542;19.082;2023-08-07T01:43:50;99612.28;;;15.32;95.19
61014;BME280;46899;47.542;19.082;2023-08-07T01:46:53;99620.47;;;15.40;93.69
61014;BME280;46899;47.542;19.082;2023-08-07T01:49:56;99622.25;;;15.40;93.82
61014;BME280;46899;47.542;19.082;2023-08-07T01:52:58;99623.34;;;15.50;90.59
61014;BME280;46899;47.542;19.082;2023-08-07T01:56:01;99625.16;;;15.62;89.35
61014;BME280;46899;47.542;19.082;2023-08-07T01:59:03;99624.09;;;15.64;90.54
61014;BME280;46899;47.542;19.082;2023-08-07T02:02:06;99629.28;;;15.66;89.35
61014;BME280;46899;47.542;19.082;2023-08-07T02:05:09;99626.84;;;15.63;89.86
61014;BME280;46899;47.542;19.082;2023-08-07T02:08:11;99621.47;;;15.64;87.78
61014;BME280;46899;47.542;19.082;2023-08-07T02:11:15;99630.41;;;15.62;88.97
61014;BME280;46899;47.542;19.082;2023-08-07T02:14:17;99629.78;;;15.71;86.99
61014;BME280;46899;47.542;19.082;2023-08-07T02:17:20;99630.63;;;15.71;86.38
61014;BME280;46899;47.542;19.082;2023-08-07T02:20:24;99631.66;;;15.69;85.10
61014;BME280;46899;47.542;19.082;2023-08-07T02:23:26;99635.25;;;15.68;86.49
61014;BME280;46899;47.542;19.082;2023-08-07T02:26:31;99637.72;;;15.57;87.60
61014;BME280;46899;47.542;19.082;2023-08-07T02:29:33;99631.22;;;15.50;88.66
61014;BME280;46899;47.542;19.082;2023-08-07T02:32:36;99639.38;;;15.45;88.25
61014;BME280;46899;47.542;19.082;2023-08-07T02:35:41;99633.50;;;15.42;88.71
61014;BME280;46899;47.542;19.082;2023-08-07T02:38:45;99623.62;;;15.33;89.23
61014;BME280;46899;47.542;19.082;2023-08-07T02:41:48;99632.81;;;15.26;90.03
61014;BME280;46899;47.542;19.082;2023-08-07T02:44:50;99629.47;;;15.24;89.67
61014;BME280;46899;47.542;19.082;2023-08-07T02:47:53;99632.09;;;15.24;89.38
61014;BME280;46899;47.542;19.082;2023-08-07T02:50:55;99630.38;;;15.23;88.85
61014;BME280;46899;47.542;19.082;2023-08-07T02:53:58;99629.66;;;15.21;89.07
61014;BME280;46899;47.542;19.082;2023-08-07T02:57:00;99631.44;;;15.20;88.52
61014;BME280;46899;47.542;19.082;2023-08-07T03:00:03;99637.53;;;15.21;88.59
61014;BME280;46899;47.542;19.082;2023-08-07T03:03:06;99641.91;;;15.20;88.27
61014;BME280;46899;47.542;19.082;2023-08-07T03:06:08;99646.59;;;15.15;88.66
61014;BME280;46899;47.542;19.082;2023-08-07T03:09:11;99641.38;;;15.15;88.61
61014;BME280;46899;47.542;19.082;2023-08-07T03:12:13;99644.19;;;15.12;90.18
61014;BME280;46899;47.542;19.082;2023-08-07T03:15:16;99638.00;;;15.13;89.56
61014;BME280;46899;47.542;19.082;2023-08-07T03:18:18;99632.78;;;15.13;88.89
61014;BME280;46899;47.542;19.082;2023-08-07T03:21:21;99635.87;;;15.05;90.10
61014;BME280;46899;47.542;19.082;2023-08-07T03:24:24;99628.31;;;15.01;88.70
61014;BME280;46899;47.542;19.082;2023-08-07T03:27:27;99636.19;;;15.01;89.57
61014;BME280;46899;47.542;19.082;2023-08-07T03:30:30;99636.47;;;14.96;88.78
61014;BME280;46899;47.542;19.082;2023-08-07T03:33:33;99649.38;;;14.99;88.80
61014;BME280;46899;47.542;19.082;2023-08-07T03:36:36;99647.31;;;15.04;87.61
61014;BME280;46899;47.542;19.082;2023-08-07T03:39:39;99649.81;;;15.06;87.22
61014;BME280;46899;47.542;19.082;2023-08-07T03:42:41;99653.47;;;15.03;86.45
61014;BME280;46899;47.542;19.082;2023-08-07T03:45:44;99651.06;;;15.00;86.82
61014;BME280;46899;47.542;19.082;2023-08-07T03:48:47;99650.87;;;15.03;86.60
61014;BME280;46899;47.542;19.082;2023-08-07T03:51:50;99662.19;;;15.04;87.37
61014;BME280;46899;47.542;19.082;2023-08-07T03:54:52;99660.78;;;14.98;87.25
61014;BME280;46899;47.542;19.082;2023-08-07T03:57:55;99663.72;;;14.94;87.57
61014;BME280;46899;47.542;19.082;2023-08-07T04:01:00;99666.25;;;14.95;87.45
61014;BME280;46899;47.542;19.082;2023-08-07T04:04:03;99665.41;;;14.95;88.16
61014;BME280;46899;47.542;19.082;2023-08-07T04:07:06;99668.09;;;14.93;87.69
61014;BME280;46899;47.542;19.082;2023-08-07T04:10:08;99670.66;;;14.95;87.42
61014;BME280;46899;47.542;19.082;2023-08-07T04:13:11;99671.88;;;14.89;88.19
61014;BME280;46899;47.542;19.082;2023-08-07T04:16:14;99666.63;;;14.89;88.28
61014;BME280;46899;47.542;19.082;2023-08-07T04:19:16;99673.56;;;14.90;87.38
61014;BME280;46899;47.542;19.082;2023-08-07T04:22:19;99674.38;;;14.91;87.77
61014;BME280;46899;47.542;19.082;2023-08-07T04:25:21;99680.69;;;14.88;87.79
61014;BME280;46899;47.542;19.082;2023-08-07T04:28:24;99671.38;;;14.97;86.67
61014;BME280;46899;47.542;19.082;2023-08-07T04:31:26;99679.25;;;14.97;86.73
61014;BME280;46899;47.542;19.082;2023-08-07T04:34:29;99681.84;;;14.97;86.34
61014;BME280;46899;47.542;19.082;2023-08-07T04:37:31;99683.53;;;14.98;86.83
61014;BME280;46899;47.542;19.082;2023-08-07T04:40:34;99691.38;;;14.98;86.69
61014;BME280;46899;47.542;19.082;2023-08-07T04:43:36;99673.59;;;15.03;85.95
61014;BME280;46899;47.542;19.082;2023-08-07T04:46:39;99686.41;;;15.07;86.01
61014;BME280;46899;47.542;19.082;2023-08-07T04:49:41;99681.72;;;15.13;85.00
61014;BME280;46899;47.542;19.082;2023-08-07T04:52:44;99681.34;;;15.19;84.60
61014;BME280;46899;47.542;19.082;2023-08-07T04:55:46;99676.97;;;15.32;82.58
61014;BME280;46899;47.542;19.082;2023-08-07T04:58:49;99681.53;;;15.42;82.23
61014;BME280;46899;47.542;19.082;2023-08-07T05:01:51;99675.41;;;15.56;81.29
61014;BME280;46899;47.542;19.082;2023-08-07T05:04:54;99672.34;;;15.62;80.25
61014;BME280;46899;47.542;19.082;2023-08-07T05:07:57;99671.75;;;15.71;80.49
61014;BME280;46899;47.542;19.082;2023-08-07T05:11:00;99671.16;;;15.80;80.42
61014;BME280;46899;47.542;19.082;2023-08-07T05:14:02;99676.16;;;15.83;78.92
61014;BME280;46899;47.542;19.082;2023-08-07T05:17:06;99681.53;;;15.82;78.30
61014;BME280;46899;47.542;19.082;2023-08-07T05:20:08;99669.03;;;15.85;78.06
61014;BME280;46899;47.542;19.082;2023-08-07T05:23:12;99683.00;;;15.86;77.72
61014;BME280;46899;47.542;19.082;2023-08-07T05:26:16;99676.06;;;15.97;77.30
61014;BME280;46899;47.542;19.082;2023-08-07T05:29:18;99681.66;;;16.05;75.84
61014;BME280;46899;47.542;19.082;2023-08-07T05:32:21;99689.56;;;16.18;74.81
61014;BME280;46899;47.542;19.082;2023-08-07T05:35:23;99685.56;;;16.25;75.03
61014;BME280;46899;47.542;19.082;2023-08-07T05:38:26;99692.16;;;16.30;74.19
61014;BME280;46899;47.542;19.082;2023-08-07T05:41:28;99704.16;;;16.34;73.95
61014;BME280;46899;47.542;19.082;2023-08-07T05:44:31;99701.63;;;16.46;73.24
61014;BME280;46899;47.542;19.082;2023-08-07T05:47:33;99705.91;;;16.47;73.73
61014;BME280;46899;47.542;19.082;2023-08-07T05:50:36;99719.06;;;16.59;72.98
61014;BME280;46899;47.542;19.082;2023-08-07T05:53:38;99708.56;;;16.72;71.72
61014;BME280;46899;47.542;19.082;2023-08-07T05:56:41;99726.03;;;16.96;71.51
61014;BME280;46899;47.542;19.082;2023-08-07T05:59:43;99736.31;;;17.12;69.43
61014;BME280;46899;47.542;19.082;2023-08-07T06:02:46;99742.16;;;17.28;68.75
61014;BME280;46899;47.542;19.082;2023-08-07T06:05:48;99737.56;;;17.43;67.97
61014;BME280;46899;47.542;19.082;2023-08-07T06:08:51;99742.13;;;17.64;67.14
61014;BME280;46899;47.542;19.082;2023-08-07T06:11:54;99759.38;;;17.68;67.14
61014;BME280;46899;47.542;19.082;2023-08-07T06:14:57;99764.72;;;17.91;67.41
61014;BME280;46899;47.542;19.082;2023-08-07T06:17:59;99768.84;;;18.06;64.68
61014;BME280;46899;47.542;19.082;2023-08-07T06:21:02;99771.66;;;18.26;64.62
61014;BME280;46899;47.542;19.082;2023-08-07T06:24:06;99795.03;;;18.42;64.09
61014;BME280;46899;47.542;19.082;2023-08-07T06:27:08;99792.12;;;18.58;62.70
61014;BME280;46899;47.542;19.082;2023-08-07T06:30:11;99781.94;;;18.64;61.24
61014;BME280;46899;47.542;19.082;2023-08-07T06:33:13;99795.00;;;18.31;61.89
61014;BME280;46899;47.542;19.082;2023-08-07T06:36:16;99798.84;;;18.27;62.89
61014;BME280;46899;47.542;19.082;2023-08-07T06:39:18;99800.81;;;18.12;62.37
61014;BME280;46899;47.542;19.082;2023-08-07T06:42:21;99802.44;;;18.02;62.87
61014;BME280;46899;47.542;19.082;2023-08-07T06:45:23;99804.88;;;18.05;63.39
61014;BME280;46899;47.542;19.082;2023-08-07T06:48:26;99816.97;;;18.08;63.03
61014;BME280;46899;47.542;19.082;2023-08-07T06:51:29;99811.56;;;18.09;63.37
61014;BME280;46899;47.542;19.082;2023-08-07T06:54:31;99822.72;;;18.13;62.71
61014;BME280;46899;47.542;19.082;2023-08-07T06:57:34;99818.00;;;17.94;62.92
61014;BME280;46899;47.542;19.082;2023-08-07T07:00:37;99821.91;;;17.89;64.23
61014;BME280;46899;47.542;19.082;2023-08-07T07:03:39;99820.38;;;17.73;63.63
61014;BME280;46899;47.542;19.082;2023-08-07T07:06:42;99831.16;;;17.70;63.75
61014;BME280;46899;47.542;19.082;2023-08-07T07:09:44;99827.13;;;17.77;63.27
61014;BME280;46899;47.542;19.082;2023-08-07T07:12:47;99829.94;;;18.22;63.22
61014;BME280;46899;47.542;19.082;2023-08-07T07:15:53;99826.06;;;19.06;59.38
61014;BME280;46899;47.542;19.082;2023-08-07T07:18:56;99819.09;;;19.28;58.70
61014;BME280;46899;47.542;19.082;2023-08-07T07:22:00;99822.97;;;20.09;54.29
61014;BME280;46899;47.542;19.082;2023-08-07T07:25:03;99831.84;;;21.32;52.10
61014;BME280;46899;47.542;19.082;2023-08-07T07:28:06;99829.66;;;22.34;49.24
61014;BME280;46899;47.542;19.082;2023-08-07T07:31:08;99813.97;;;22.79;46.60
61014;BME280;46899;47.542;19.082;2023-08-07T07:34:13;99831.19;;;22.08;47.69
61014;BME280;46899;47.542;19.082;2023-08-07T07:37:16;99823.34;;;21.29;49.98
61014;BME280;46899;47.542;19.082;2023-08-07T07:40:19;99828.38;;;21.91;48.54
61014;BME280;46899;47.542;19.082;2023-08-07T07:43:22;99831.16;;;22.56;47.06
61014;BME280;46899;47.542;19.082;2023-08-07T07:46:25;99836.06;;;22.41;47.27
61014;BME280;46899;47.542;19.082;2023-08-07T07:49:28;99837.72;;;22.52;46.88
61014;BME280;46899;47.542;19.082;2023-08-07T07:52:30;99844.44;;;22.08;46.58
61014;BME280;46899;47.542;19.082;2023-08-07T07:55:33;99846.47;;;22.91;46.53
61014;BME280;46899;47.542;19.082;2023-08-07T07:58:36;99848.69;;;22.95;45.83
61014;BME280;46899;47.542;19.082;2023-08-07T08:01:38;99859.94;;;22.13;47.67
61014;BME280;46899;47.542;19.082;2023-08-07T08:04:41;99860.16;;;21.91;47.41
61014;BME280;46899;47.542;19.082;2023-08-07T08:07:44;99868.19;;;21.70;48.18
61014;BME280;46899;47.542;19.082;2023-08-07T08:10:46;99866.88;;;21.15;50.22
61014;BME280;46899;47.542;19.082;2023-08-07T08:13:50;99870.81;;;20.38;51.29
61014;BME280;46899;47.542;19.082;2023-08-07T08:16:53;99862.16;;;20.04;51.50
61014;BME280;46899;47.542;19.082;2023-08-07T08:19:56;99877.09;;;19.94;52.67
61014;BME280;46899;47.542;19.082;2023-08-07T08:22:59;99883.72;;;20.20;53.78
61014;BME280;46899;47.542;19.082;2023-08-07T08:26:01;99883.69;;;20.31;52.19
61014;BME280;46899;47.542;19.082;2023-08-07T08:29:05;99894.34;;;19.98;53.32
61014;BME280;46899;47.542;19.082;2023-08-07T08:32:08;99906.09;;;20.05;52.57
61014;BME280;46899;47.542;19.082;2023-08-07T08:35:11;99890.88;;;20.40;52.21
61014;BME280;46899;47.542;19.082;2023-08-07T08:38:13;99890.81;;;20.52;52.04
61014;BME280;46899;47.542;19.082;2023-08-07T08:41:16;99901.34;;;20.31;52.83
61014;BME280;46899;47.542;19.082;2023-08-07T08:44:19;99908.44;;;20.30;52.77
61014;BME280;46899;47.542;19.082;2023-08-07T08:47:22;99902.06;;;19.90;52.60
61014;BME280;46899;47.542;19.082;2023-08-07T08:50:25;99907.09;;;19.93;54.02
61014;BME280;46899;47.542;19.082;2023-08-07T08:53:28;99909.22;;;20.42;51.50
61014;BME280;46899;47.542;19.082;2023-08-07T08:56:31;99920.50;;;20.76;51.86
61014;BME280;46899;47.542;19.082;2023-08-07T08:59:34;99911.31;;;20.59;51.77
61014;BME280;46899;47.542;19.082;2023-08-07T09:02:36;99927.50;;;20.45;53.33
61014;BME280;46899;47.542;19.082;2023-08-07T09:05:39;99934.31;;;20.48;52.18
61014;BME280;46899;47.542;19.082;2023-08-07T09:08:42;99932.41;;;20.50;52.24
61014;BME280;46899;47.542;19.082;2023-08-07T09:11:45;99937.81;;;20.48;51.88
61014;BME280;46899;47.542;19.082;2023-08-07T09:14:53;99922.38;;;20.21;52.81
61014;BME280;46899;47.542;19.082;2023-08-07T09:17:57;99931.50;;;20.39;54.01
61014;BME280;46899;47.542;19.082;2023-08-07T09:21:00;99927.22;;;20.27;54.83
61014;BME280;46899;47.542;19.082;2023-08-07T09:24:03;99936.88;;;20.70;53.30
61014;BME280;46899;47.542;19.082;2023-08-07T09:27:08;99929.00;;;20.59;51.59
61014;BME280;46899;47.542;19.082;2023-08-07T09:30:11;99938.56;;;20.39;53.28
61014;BME280;46899;47.542;19.082;2023-08-07T09:33:14;99938.53;;;20.50;52.83
61014;BME280;46899;47.542;19.082;2023-08-07T09:36:17;99938.47;;;21.44;51.64
61014;BME280;46899;47.542;19.082;2023-08-07T09:39:20;99940.97;;;22.15;48.15
61014;BME280;46899;47.542;19.082;2023-08-07T09:42:26;99943.38;;;22.37;47.75
61014;BME280;46899;47.542;19.082;2023-08-07T09:45:32;99953.41;;;22.24;48.66
61014;BME280;46899;47.542;19.082;2023-08-07T09:48:40;99943.16;;;22.01;47.13
61014;BME280;46899;47.542;19.082;2023-08-07T09:51:44;99946.38;;;21.95;48.23
61014;BME280;46899;47.542;19.082;2023-08-07T09:54:47;99947.31;;;21.54;49.56
61014;BME280;46899;47.542;19.082;2023-08-07T09:57:52;99962.91;;;21.06;50.04
61014;BME280;46899;47.542;19.082;2023-08-07T10:00:55;99958.88;;;20.38;50.19
61014;BME280;46899;47.542;19.082;2023-08-07T10:04:05;99970.53;;;20.14;53.19
61014;BME280;46899;47.542;19.082;2023-08-07T10:07:08;99977.38;;;20.38;52.03
61014;BME280;46899;47.542;19.082;2023-08-07T10:10:13;99973.31;;;20.12;53.50
61014;BME280;46899;47.542;19.082;2023-08-07T10:13:16;99972.38;;;20.02;54.16
61014;BME280;46899;47.542;19.082;2023-08-07T10:16:23;99977.78;;;20.23;53.58
61014;BME280;46899;47.542;19.082;2023-08-07T10:19:26;99981.50;;;20.63;51.98
61014;BME280;46899;47.542;19.082;2023-08-07T10:22:29;99983.00;;;21.08;50.54
61014;BME280;46899;47.542;19.082;2023-08-07T10:25:32;99979.38;;;21.09;49.66
61014;BME280;46899;47.542;19.082;2023-08-07T10:28:36;99984.88;;;21.38;49.30
61014;BME280;46899;47.542;19.082;2023-08-07T10:31:40;99971.06;;;21.14;49.12
61014;BME280;46899;47.542;19.082;2023-08-07T10:34:51;99990.47;;;20.72;51.93
61014;BME280;46899;47.542;19.082;2023-08-07T10:37:54;99980.50;;;20.43;52.91
61014;BME280;46899;47.542;19.082;2023-08-07T10:44:03;99981.06;;;20.79;52.67
61014;BME280;46899;47.542;19.082;2023-08-07T10:47:05;99978.97;;;21.35;50.69
61014;BME280;46899;47.542;19.082;2023-08-07T10:50:09;99986.03;;;21.45;49.88
61014;BME280;46899;47.542;19.082;2023-08-07T10:53:17;99990.44;;;21.03;50.11
61014;BME280;46899;47.542;19.082;2023-08-07T10:56:33;99992.59;;;20.89;51.23
61014;BME280;46899;47.542;19.082;2023-08-07T10:59:37;99997.28;;;20.85;51.35
61014;BME280;46899;47.542;19.082;2023-08-07T11:02:41;100002.91;;;20.60;53.20
61014;BME280;46899;47.542;19.082;2023-08-07T11:05:44;100003.69;;;20.07;54.67
61014;BME280;46899;47.542;19.082;2023-08-07T11:08:47;100023.78;;;19.87;56.61
61014;BME280;46899;47.542;19.082;2023-08-07T11:11:50;100010.47;;;19.21;57.36
61014;BME280;46899;47.542;19.082;2023-08-07T11:14:53;100017.06;;;19.61;56.65
61014;BME280;46899;47.542;19.082;2023-08-07T11:17:59;100011.38;;;19.43;56.73
61014;BME280;46899;47.542;19.082;2023-08-07T11:21:02;100005.19;;;19.66;56.58
61014;BME280;46899;47.542;19.082;2023-08-07T11:24:05;100007.94;;;19.98;56.34
61014;BME280;46899;47.542;19.082;2023-08-07T11:27:07;100008.88;;;19.42;56.70
61014;BME280;46899;47.542;19.082;2023-08-07T11:30:11;100012.59;;;19.16;58.01
61014;BME280;46899;47.542;19.082;2023-08-07T11:33:14;100017.34;;;18.88;59.69
61014;BME280;46899;47.542;19.082;2023-08-07T11:36:16;100018.56;;;18.95;58.76
61014;BME280;46899;47.542;19.082;2023-08-07T11:39:19;100013.97;;;18.86;58.65
61014;BME280;46899;47.542;19.082;2023-08-07T11:42:22;100021.03;;;18.86;58.44
61014;BME280;46899;47.542;19.082;2023-08-07T11:45:25;100010.94;;;18.80;59.26
61014;BME280;46899;47.542;19.082;2023-08-07T11:48:28;100012.81;;;19.01;58.85
61014;BME280;46899;47.542;19.082;2023-08-07T11:51:31;100025.69;;;18.82;59.16
61014;BME280;46899;47.542;19.082;2023-08-07T11:54:34;100012.00;;;18.77;60.15
61014;BME280;46899;47.542;19.082;2023-08-07T11:57:39;100031.97;;;18.69;60.13
61014;BME280;46899;47.542;19.082;2023-08-07T12:00:45;100023.19;;;18.92;60.59
61014;BME280;46899;47.542;19.082;2023-08-07T12:07:10;100023.94;;;19.29;60.60
61014;BME280;46899;47.542;19.082;2023-08-07T12:10:13;100023.75;;;19.43;58.76
61014;BME280;46899;47.542;19.082;2023-08-07T12:13:16;100021.25;;;19.18;59.86
61014;BME280;46899;47.542;19.082;2023-08-07T12:16:18;100030.31;;;19.02;60.71
61014;BME280;46899;47.542;19.082;2023-08-07T12:19:21;100021.28;;;19.29;59.10
61014;BME280;46899;47.542;19.082;2023-08-07T12:22:24;100012.97;;;19.57;59.78
61014;BME280;46899;47.542;19.082;2023-08-07T12:25:28;100025.19;;;19.47;58.52
61014;BME280;46899;47.542;19.082;2023-08-07T12:28:31;100022.56;;;19.47;59.35
61014;BME280;46899;47.542;19.082;2023-08-07T12:31:34;100020.63;;;19.38;58.06
61014;BME280;46899;47.542;19.082;2023-08-07T12:34:41;100021.59;;;19.13;59.66
61014;BME280;46899;47.542;19.082;2023-08-07T12:37:46;100016.81;;;19.86;56.52
61014;BME280;46899;47.542;19.082;2023-08-07T12:40:49;100034.34;;;19.98;57.09
61014;BME280;46899;47.542;19.082;2023-08-07T12:43:52;100032.31;;;19.79;56.26
61014;BME280;46899;47.542;19.082;2023-08-07T12:46:54;100050.28;;;19.52;56.69
61014;BME280;46899;47.542;19.082;2023-08-07T12:49:57;100044.03;;;19.64;56.78
61014;BME280;46899;47.542;19.082;2023-08-07T12:53:00;100044.53;;;19.58;57.22
61014;BME280;46899;47.542;19.082;2023-08-07T12:56:03;100038.50;;;19.45;57.83
61014;BME280;46899;47.542;19.082;2023-08-07T12:59:07;100036.94;;;19.43;58.68
61014;BME280;46899;47.542;19.082;2023-08-07T13:02:09;100045.38;;;19.59;59.15
61014;BME280;46899;47.542;19.082;2023-08-07T13:05:12;100047.37;;;19.09;59.55
61014;BME280;46899;47.542;19.082;2023-08-07T13:08:15;100050.25;;;18.83;60.15
61014;BME280;46899;47.542;19.082;2023-08-07T13:11:17;100053.00;;;18.81;60.19
61014;BME280;46899;47.542;19.082;2023-08-07T13:14:20;100053.78;;;18.47;60.54
61014;BME280;46899;47.542;19.082;2023-08-07T13:17:23;100067.81;;;18.71;61.11
61014;BME280;46899;47.542;19.082;2023-08-07T13:20:25;100061.19;;;18.89;59.86
61014;BME280;46899;47.542;19.082;2023-08-07T13:23:29;100063.09;;;18.87;59.02
61014;BME280;46899;47.542;19.082;2023-08-07T13:26:31;100065.78;;;18.98;59.71
61014;BME280;46899;47.542;19.082;2023-08-07T13:29:34;100065.03;;;19.20;59.33
61014;BME280;46899;47.542;19.082;2023-08-07T13:32:37;100077.84;;;19.13;59.28
61014;BME280;46899;47.542;19.082;2023-08-07T13:35:40;100068.16;;;18.90;59.97
61014;BME280;46899;47.542;19.082;2023-08-07T13:38:42;100072.84;;;18.38;60.46
61014;BME280;46899;47.542;19.082;2023-08-07T13:41:48;100068.97;;;18.18;62.32
61014;BME280;46899;47.542;19.082;2023-08-07T13:44:51;100082.72;;;18.11;63.34
61014;BME280;46899;47.542;19.082;2023-08-07T13:47:54;100086.69;;;18.29;62.84
61014;BME280;46899;47.542;19.082;2023-08-07T13:50:56;100094.91;;;18.24;62.20
61014;BME280;46899;47.542;19.082;2023-08-07T13:53:59;100097.87;;;17.95;63.27
61014;BME280;46899;47.542;19.082;2023-08-07T13:57:01;100093.16;;;17.87;64.48
61014;BME280;46899;47.542;19.082;2023-08-07T14:00:04;100096.41;;;17.91;65.00
61014;BME280;46899;47.542;19.082;2023-08-07T14:03:10;100103.56;;;18.01;65.84
61014;BME280;46899;47.542;19.082;2023-08-07T14:06:15;100095.22;;;18.20;64.12
61014;BME280;46899;47.542;19.082;2023-08-07T14:09:18;100108.31;;;18.09;64.39
61014;BME280;46899;47.542;19.082;2023-08-07T14:12:23;100101.97;;;18.24;64.22
61014;BME280;46899;47.542;19.082;2023-08-07T14:15:26;100110.31;;;17.80;65.78
61014;BME280;46899;47.542;19.082;2023-08-07T14:18:29;100126.06;;;17.55;66.94
61014;BME280;46899;47.542;19.082;2023-08-07T14:21:31;100114.00;;;17.38;67.34
61014;BME280;46899;47.542;19.082;2023-08-07T14:24:34;100127.63;;;17.18;68.31
61014;BME280;46899;47.542;19.082;2023-08-07T14:27:36;100130.12;;;17.07;68.80
61014;BME280;46899;47.542;19.082;2023-08-07T14:30:39;100130.81;;;16.70;71.92
61014;BME280;46899;47.542;19.082;2023-08-07T14:33:41;100127.25;;;16.57;73.16
61014;BME280;46899;47.542;19.082;2023-08-07T14:36:44;100122.97;;;16.56;74.25
61014;BME280;46899;47.542;19.082;2023-08-07T14:39:46;100133.25;;;16.59;74.59
61014;BME280;46899;47.542;19.082;2023-08-07T14:42:49;100125.19;;;16.62;73.77
61014;BME280;46899;47.542;19.082;2023-08-07T14:45:51;100126.34;;;16.58;74.23
61014;BME280;46899;47.542;19.082;2023-08-07T14:48:55;100122.47;;;16.63;74.60
61014;BME280;46899;47.542;19.082;2023-08-07T14:51:58;100131.66;;;16.56;76.17
61014;BME280;46899;47.542;19.082;2023-08-07T14:55:02;100125.59;;;16.41;75.98
61014;BME280;46899;47.542;19.082;2023-08-07T14:58:05;100135.72;;;16.33;77.39
61014;BME280;46899;47.542;19.082;2023-08-07T15:01:07;100134.00;;;16.32;77.67
61014;BME280;46899;47.542;19.082;2023-08-07T15:04:10;100147.12;;;16.32;78.66
61014;BME280;46899;47.542;19.082;2023-08-07T15:07:13;100138.34;;;16.33;77.48
61014;BME280;46899;47.542;19.082;2023-08-07T15:10:16;100144.53;;;16.18;78.73
61014;BME280;46899;47.542;19.082;2023-08-07T15:13:18;100142.00;;;16.03;79.25
61014;BME280;46899;47.542;19.082;2023-08-07T15:16:21;100137.88;;;15.99;79.50
61014;BME280;46899;47.542;19.082;2023-08-07T15:19:23;100144.16;;;15.96;80.60
61014;BME280;46899;47.542;19.082;2023-08-07T15:22:26;100135.16;;;16.00;81.06
61014;BME280;46899;47.542;19.082;2023-08-07T15:25:29;100150.06;;;16.14;81.72
61014;BME280;46899;47.542;19.082;2023-08-07T15:28:32;100143.94;;;16.27;80.16
61014;BME280;46899;47.542;19.082;2023-08-07T15:31:34;100135.59;;;16.49;79.01
61014;BME280;46899;47.542;19.082;2023-08-07T15:34:37;100141.87;;;16.47;80.00
61014;BME280;46899;47.542;19.082;2023-08-07T15:37:39;100137.47;;;16.47;79.14
61014;BME280;46899;47.542;19.082;2023-08-07T15:40:42;100133.44;;;16.13;80.35
61014;BME280;46899;47.542;19.082;2023-08-07T15:43:44;100141.72;;;16.07;81.63
61014;BME280;46899;47.542;19.082;2023-08-07T15:46:47;100137.88;;;16.13;82.16
61014;BME280;46899;47.542;19.082;2023-08-07T15:49:49;100141.16;;;16.16;82.29
61014;BME280;46899;47.542;19.082;2023-08-07T15:52:52;100137.97;;;16.11;82.30
61014;BME280;46899;47.542;19.082;2023-08-07T15:55:54;100139.66;;;16.26;82.85
61014;BME280;46899;47.542;19.082;2023-08-07T15:58:57;100128.47;;;16.23;82.15
61014;BME280;46899;47.542;19.082;2023-08-07T16:01:59;100130.72;;;16.43;82.67